createdAt,value
2023-03-06T00:00:32.876Z,94704.5
2023-03-06T00:01:35.408Z,94704.5
2023-03-06T00:02:37.627Z,94706.3
2023-03-06T00:03:40.415Z,94703.8
2023-03-06T00:04:42.440Z,94700.2
2023-03-06T00:05:45.323Z,94702.6
2023-03-06T00:06:47.596Z,94702.5
2023-03-06T00:07:49.829Z,94701
2023-03-06T00:08:51.797Z,94700.3
2023-03-06T00:09:54.333Z,94694.5
2023-03-06T00:10:56.594Z,94696.1
2023-03-06T00:11:59.162Z,94696.5
2023-03-06T00:13:01.675Z,94693.2
2023-03-06T00:14:04.170Z,94689.9
2023-03-06T00:15:07.378Z,94693.8
2023-03-06T00:16:09.742Z,94693.2
2023-03-06T00:17:11.992Z,94692.5
2023-03-06T00:18:14.516Z,94691.9
2023-03-06T00:19:16.450Z,94691.2
2023-03-06T00:20:18.959Z,94690.4
2023-03-06T00:21:21.195Z,94689.7
2023-03-06T00:22:23.416Z,94687
2023-03-06T00:23:25.922Z,94680.6
2023-03-06T00:24:28.441Z,94682.3
2023-03-06T00:25:31.306Z,94686.3
2023-03-06T00:26:33.542Z,94682.4
2023-03-06T00:27:35.732Z,94683.6
2023-03-06T00:28:38.376Z,94685.6
2023-03-06T00:29:40.315Z,94682.5
2023-03-06T00:30:42.573Z,94683.8
2023-03-06T00:31:44.757Z,94673.9
2023-03-06T00:32:47.447Z,94681.1
2023-03-06T00:33:50.144Z,94675.5
2023-03-06T00:34:52.637Z,94671.1
2023-03-06T00:35:55.024Z,94675.5
2023-03-06T00:36:57.661Z,94672.7
2023-03-06T00:37:59.946Z,94670.1
2023-03-06T00:39:02.166Z,94668.4
2023-03-06T00:40:04.412Z,94663.8
2023-03-06T00:41:06.390Z,94662.7
2023-03-06T00:42:08.622Z,94662.2
2023-03-06T00:43:11.093Z,94659.7
2023-03-06T00:44:13.332Z,94658.4
2023-03-06T00:45:15.580Z,94661.6
2023-03-06T00:46:18.182Z,94656.9
2023-03-06T00:47:20.470Z,94655.5
2023-03-06T00:48:22.968Z,94654.8
2023-03-06T00:49:25.452Z,94652.2
2023-03-06T00:50:27.749Z,94649.9
2023-03-06T00:51:29.959Z,94645
2023-03-06T00:52:32.162Z,94646.9
2023-03-06T00:53:34.499Z,94644.4
2023-03-06T00:54:37.003Z,94646
2023-03-06T00:55:39.518Z,94645.1
2023-03-06T00:56:41.517Z,94642.3
2023-03-06T00:57:44.012Z,94637
2023-03-06T00:58:45.943Z,94638.3
2023-03-06T00:59:48.440Z,94636.9
2023-03-06T01:00:51.044Z,94632.3
2023-03-06T01:01:53.870Z,94637.2
2023-03-06T01:02:56.628Z,94632.5
2023-03-06T01:03:59.144Z,94633.6
2023-03-06T01:05:01.698Z,94632.1
2023-03-06T01:06:04.191Z,94631.9
2023-03-06T01:07:06.411Z,94629.2
2023-03-06T01:08:08.698Z,94632.6
2023-03-06T01:09:10.900Z,94626.2
2023-03-06T01:10:13.174Z,94624.5
2023-03-06T01:11:15.781Z,94622.8
2023-03-06T01:12:18.314Z,94621.6
2023-03-06T01:13:20.570Z,94623.2
2023-03-06T01:14:22.842Z,94615.8
2023-03-06T01:15:25.420Z,94616.2
2023-03-06T01:16:27.538Z,94615.6
2023-03-06T01:17:29.928Z,94610.4
2023-03-06T01:18:32.446Z,94610.1
2023-03-06T01:19:34.940Z,94609.1
2023-03-06T01:20:37.157Z,94611
2023-03-06T01:21:39.673Z,94607.1
2023-03-06T01:22:42.246Z,94606.3
2023-03-06T01:23:44.544Z,94611.4
2023-03-06T01:24:46.776Z,94608
2023-03-06T01:25:49.298Z,94604
2023-03-06T01:26:51.539Z,94601.8
2023-03-06T01:27:54.107Z,94599.4
2023-03-06T01:28:56.365Z,94597.9
2023-03-06T01:29:58.924Z,94593.5
2023-03-06T01:31:01.435Z,94595.3
2023-03-06T01:32:04.662Z,94590.9
2023-03-06T01:33:07.590Z,94587.5
2023-03-06T01:34:10.109Z,94582.3
2023-03-06T01:35:12.672Z,94581.9
2023-03-06T01:36:15.232Z,94580.7
2023-03-06T01:37:17.513Z,94577.5
2023-03-06T01:38:20.099Z,94574.2
2023-03-06T01:39:22.618Z,94573.2
2023-03-06T01:40:25.110Z,94570.3
2023-03-06T01:41:27.347Z,94564.4
2023-03-06T01:43:35.983Z,94560.2
2023-03-06T01:44:38.216Z,94556.3
2023-03-06T01:45:40.839Z,94558.6
2023-03-06T01:46:43.450Z,94554.6
2023-03-06T01:47:46.019Z,94549.4
2023-03-06T01:48:48.316Z,94546.5
2023-03-06T01:49:50.559Z,94544
2023-03-06T01:50:53.036Z,94540.5
2023-03-06T01:51:54.974Z,94539.1
2023-03-06T01:52:57.175Z,94536
2023-03-06T01:53:59.388Z,94536.2
2023-03-06T01:55:01.901Z,94533.9
2023-03-06T01:56:04.109Z,94535.8
2023-03-06T01:57:06.288Z,94535.1
2023-03-06T01:58:08.592Z,94532
2023-03-06T01:59:10.836Z,94529.1
2023-03-06T02:00:13.065Z,94526.5
2023-03-06T02:01:15.620Z,94531
2023-03-06T02:02:18.278Z,94528.9
2023-03-06T02:03:20.855Z,94531.8
2023-03-06T02:04:23.490Z,94527.1
2023-03-06T02:05:25.718Z,94526.8
2023-03-06T02:06:27.662Z,94524.5
2023-03-06T02:07:29.879Z,94525.6
2023-03-06T02:08:32.409Z,94520.5
2023-03-06T02:09:34.875Z,94524.8
2023-03-06T02:10:37.092Z,94524.5
2023-03-06T02:11:39.707Z,94522.5
2023-03-06T02:12:42.326Z,94519.3
2023-03-06T02:13:44.819Z,94518.9
2023-03-06T02:14:47.325Z,94516.7
2023-03-06T02:15:49.593Z,94509.8
2023-03-06T02:16:52.361Z,94508.2
2023-03-06T02:17:54.461Z,94507
2023-03-06T02:18:57.056Z,94504.8
2023-03-06T02:19:59.339Z,94502
2023-03-06T02:21:01.606Z,94507.4
2023-03-06T02:22:04.101Z,94503.8
2023-03-06T02:23:06.330Z,94508.2
2023-03-06T02:24:07.995Z,94502.6
2023-03-06T02:25:10.482Z,94507
2023-03-06T02:26:12.707Z,94506
2023-03-06T02:27:15.239Z,94498.4
2023-03-06T02:28:17.485Z,94499.9
2023-03-06T02:29:20.010Z,94500.2
2023-03-06T02:30:22.525Z,94499.9
2023-03-06T02:31:25.020Z,94497.6
2023-03-06T02:32:27.813Z,94500.4
2023-03-06T02:33:30.399Z,94496.4
2023-03-06T02:34:32.613Z,94495.6
2023-03-06T02:35:35.340Z,94494.3
2023-03-06T02:36:37.665Z,94495.8
2023-03-06T02:37:39.866Z,94490.5
2023-03-06T02:38:42.070Z,94486.8
2023-03-06T02:39:44.303Z,94482.7
2023-03-06T02:40:46.231Z,94481.5
2023-03-06T02:41:48.719Z,94479.5
2023-03-06T02:42:51.224Z,94480.4
2023-03-06T02:43:53.736Z,94478.5
2023-03-06T02:44:55.959Z,94482.2
2023-03-06T02:45:58.320Z,94482.6
2023-03-06T02:47:00.892Z,94483.1
2023-03-06T02:48:03.415Z,94478
2023-03-06T02:49:05.628Z,94479.2
2023-03-06T02:50:07.817Z,94478.9
2023-03-06T02:51:10.412Z,94475.8
2023-03-06T02:52:12.659Z,94474.2
2023-03-06T02:53:14.601Z,94475.9
2023-03-06T02:54:17.091Z,94470.8
2023-03-06T02:55:19.590Z,94473.2
2023-03-06T02:56:22.090Z,94472.4
2023-03-06T02:57:24.611Z,94467.5
2023-03-06T02:58:26.548Z,94470.4
2023-03-06T02:59:28.812Z,94474.1
2023-03-06T03:00:31.031Z,94470.4
2023-03-06T03:01:33.485Z,94469.5
2023-03-06T03:02:36.124Z,94468.1
2023-03-06T03:03:38.612Z,94465
2023-03-06T03:04:41.101Z,94459.4
2023-03-06T03:05:43.450Z,94456.8
2023-03-06T03:06:46.081Z,94459.1
2023-03-06T03:07:48.642Z,94458.8
2023-03-06T03:08:51.125Z,94457.5
2023-03-06T03:09:53.400Z,94462.6
2023-03-06T03:10:55.598Z,94460.6
2023-03-06T03:11:57.870Z,94460.5
2023-03-06T03:13:00.377Z,94457.2
2023-03-06T03:14:02.864Z,94453.2
2023-03-06T03:15:05.074Z,94455.9
2023-03-06T03:16:07.907Z,94454.8
2023-03-06T03:17:10.263Z,94448.6
2023-03-06T03:18:12.788Z,94450
2023-03-06T03:19:14.994Z,94446.4
2023-03-06T03:20:16.938Z,94448.8
2023-03-06T03:21:19.190Z,94445.4
2023-03-06T03:22:21.645Z,94445.7
2023-03-06T03:23:23.381Z,94449.8
2023-03-06T03:24:25.564Z,94448.2
2023-03-06T03:25:27.579Z,94447.1
2023-03-06T03:26:29.508Z,94446.3
2023-03-06T03:27:32.010Z,94445.5
2023-03-06T03:28:34.521Z,94447.8
2023-03-06T03:29:36.723Z,94445.8
2023-03-06T03:30:39.234Z,94446.6
2023-03-06T03:31:41.482Z,94446.5
2023-03-06T03:32:43.989Z,94444.7
2023-03-06T03:33:46.477Z,94449.7
2023-03-06T03:34:48.978Z,94447.8
2023-03-06T03:35:51.676Z,94449.5
2023-03-06T03:36:54.189Z,94450.7
2023-03-06T03:37:56.763Z,94445.9
2023-03-06T03:38:59.018Z,94440.1
2023-03-06T03:40:01.560Z,94439.6
2023-03-06T03:41:03.838Z,94437.3
2023-03-06T03:42:06.350Z,94437.2
2023-03-06T03:43:08.550Z,94433.9
2023-03-06T03:44:11.048Z,94437.1
2023-03-06T03:45:13.577Z,94432.9
2023-03-06T03:46:15.992Z,94436
2023-03-06T03:47:18.494Z,94435.2
2023-03-06T03:48:21.014Z,94430.9
2023-03-06T03:49:23.631Z,94432.8
2023-03-06T03:50:25.740Z,94439.7
2023-03-06T03:51:28.264Z,94434.5
2023-03-06T03:52:30.480Z,94436
2023-03-06T03:53:33.057Z,94433.3
2023-03-06T03:54:35.339Z,94431.6
2023-03-06T03:55:37.834Z,94437.5
2023-03-06T03:56:40.041Z,94433.8
2023-03-06T03:57:42.291Z,94436.1
2023-03-06T03:58:44.555Z,94436.5
2023-03-06T03:59:47.188Z,94436.6
2023-03-06T04:00:49.535Z,94434.2
2023-03-06T04:01:51.954Z,94431.7
2023-03-06T04:02:54.088Z,94432.4
2023-03-06T04:03:56.353Z,94427.6
2023-03-06T04:04:59.010Z,94429.3
2023-03-06T04:06:01.279Z,94426.9
2023-03-06T04:07:03.777Z,94424.9
2023-03-06T04:08:06.255Z,94419.3
2023-03-06T04:09:08.885Z,94421.1
2023-03-06T04:10:11.419Z,94418.2
2023-03-06T04:11:13.362Z,94416.3
2023-03-06T04:12:15.289Z,94414
2023-03-06T04:13:17.808Z,94410.6
2023-03-06T04:14:20.016Z,94410.6
2023-03-06T04:15:22.224Z,94411.4
2023-03-06T04:16:24.882Z,94407.1
2023-03-06T04:17:27.467Z,94406.5
2023-03-06T04:18:29.689Z,94404
2023-03-06T04:19:32.235Z,94404.5
2023-03-06T04:20:34.162Z,94407.3
2023-03-06T04:21:36.376Z,94404.1
2023-03-06T04:22:38.321Z,94399.6
2023-03-06T04:23:40.821Z,94399.8
2023-03-06T04:24:43.111Z,94398.7
2023-03-06T04:25:45.752Z,94398.5
2023-03-06T04:26:48.294Z,94393.7
2023-03-06T04:27:50.814Z,94394.7
2023-03-06T04:28:53.064Z,94395.2
2023-03-06T04:29:55.257Z,94396.5
2023-03-06T04:30:57.189Z,94400.5
2023-03-06T04:31:59.389Z,94395.3
2023-03-06T04:33:01.998Z,94396.4
2023-03-06T04:34:04.514Z,94398.5
2023-03-06T04:35:07.106Z,94401.3
2023-03-06T04:36:09.371Z,94403.1
2023-03-06T04:37:11.928Z,94400.3
2023-03-06T04:38:14.453Z,94401.3
2023-03-06T04:39:16.965Z,94404.2
2023-03-06T04:40:20.328Z,94401.9
2023-03-06T04:41:23.432Z,94407.4
2023-03-06T04:42:26.269Z,94405.5
2023-03-06T04:43:28.612Z,94404.2
2023-03-06T04:44:31.107Z,94408.1
2023-03-06T04:45:33.851Z,94404.6
2023-03-06T04:46:36.458Z,94401.6
2023-03-06T04:47:38.977Z,94395.6
2023-03-06T04:48:41.477Z,94396
2023-03-06T04:49:43.975Z,94399.6
2023-03-06T04:50:46.511Z,94401.4
2023-03-06T04:51:49.095Z,94402.9
2023-03-06T04:52:51.714Z,94399
2023-03-06T04:53:54.227Z,94399.9
2023-03-06T04:54:56.716Z,94396.7
2023-03-06T04:55:59.269Z,94393.2
2023-03-06T04:57:01.543Z,94394.5
2023-03-06T04:58:03.782Z,94388.9
2023-03-06T04:59:06.014Z,94395.5
2023-03-06T05:00:08.223Z,94398.1
2023-03-06T05:01:11.111Z,94393.7
2023-03-06T05:02:13.897Z,94390.4
2023-03-06T05:03:16.135Z,94393.1
2023-03-06T05:04:18.657Z,94390.1
2023-03-06T05:05:20.860Z,94393
2023-03-06T05:06:23.394Z,94395.8
2023-03-06T05:07:25.867Z,94392.7
2023-03-06T05:08:28.359Z,94390.9
2023-03-06T05:09:30.584Z,94385.6
2023-03-06T05:10:33.078Z,94384.8
2023-03-06T05:11:35.351Z,94387.4
2023-03-06T05:12:37.652Z,94386.4
2023-03-06T05:13:39.868Z,94390.1
2023-03-06T05:14:42.372Z,94388.1
2023-03-06T05:15:44.609Z,94381.6
2023-03-06T05:16:47.341Z,94388.6
2023-03-06T05:17:49.966Z,94384.6
2023-03-06T05:18:52.474Z,94382.5
2023-03-06T05:19:55.004Z,94381.6
2023-03-06T05:20:57.487Z,94378.3
2023-03-06T05:21:59.997Z,94380
2023-03-06T05:23:02.510Z,94374.8
2023-03-06T05:24:05.094Z,94374.7
2023-03-06T05:25:07.346Z,94376.8
2023-03-06T05:26:09.577Z,94372.6
2023-03-06T05:27:11.878Z,94371.8
2023-03-06T05:28:14.425Z,94372.8
2023-03-06T05:29:16.944Z,94374.4
2023-03-06T05:30:19.449Z,94373.6
2023-03-06T05:31:22.163Z,94374.8
2023-03-06T05:32:25.050Z,94373.4
2023-03-06T05:33:27.304Z,94369.3
2023-03-06T05:34:29.586Z,94373.1
2023-03-06T05:35:32.217Z,94368.5
2023-03-06T05:36:34.903Z,94371
2023-03-06T05:37:37.876Z,94363.3
2023-03-06T05:38:40.720Z,94359.3
2023-03-06T05:39:43.211Z,94364
2023-03-06T05:40:45.470Z,94363.2
2023-03-06T05:41:47.740Z,94362.7
2023-03-06T05:42:50.352Z,94363.3
2023-03-06T05:43:52.616Z,94367.7
2023-03-06T05:44:54.028Z,94365.4
2023-03-06T05:45:56.399Z,94369.9
2023-03-06T05:46:58.355Z,94371.2
2023-03-06T05:48:00.837Z,94364.9
2023-03-06T05:49:03.076Z,94373.4
2023-03-06T05:50:04.768Z,94371.4
2023-03-06T05:51:07.304Z,94373.2
2023-03-06T05:52:09.796Z,94372.5
2023-03-06T05:53:12.481Z,94377.2
2023-03-06T05:54:14.822Z,94375.4
2023-03-06T05:55:17.317Z,94376.6
2023-03-06T05:56:19.560Z,94374.9
2023-03-06T05:57:22.104Z,94382.4
2023-03-06T05:58:24.665Z,94377.4
2023-03-06T05:59:27.180Z,94381.5
2023-03-06T06:00:29.397Z,94382.5
2023-03-06T06:01:31.906Z,94383.4
2023-03-06T06:02:34.452Z,94377
2023-03-06T06:03:36.976Z,94375.6
2023-03-06T06:04:38.980Z,94382.3
2023-03-06T06:05:41.488Z,94385.5
2023-03-06T06:06:43.463Z,94382
2023-03-06T06:07:46.011Z,94384
2023-03-06T06:08:48.528Z,94388.8
2023-03-06T06:09:51.014Z,94389.2
2023-03-06T06:10:54.727Z,94382.6
2023-03-06T06:11:57.215Z,94382
2023-03-06T06:12:59.695Z,94385.4
2023-03-06T06:14:02.346Z,94381.3
2023-03-06T06:15:04.854Z,94380.7
2023-03-06T06:16:07.257Z,94385.4
2023-03-06T06:17:09.860Z,94387.8
2023-03-06T06:18:12.135Z,94386.5
2023-03-06T06:19:14.413Z,94388.1
2023-03-06T06:20:16.911Z,94383.6
2023-03-06T06:21:19.420Z,94386
2023-03-06T06:22:21.657Z,94385.9
2023-03-06T06:23:24.164Z,94391.8
2023-03-06T06:24:26.699Z,94389.5
2023-03-06T06:25:28.927Z,94399.4
2023-03-06T06:26:31.438Z,94395.5
2023-03-06T06:27:33.969Z,94398.7
2023-03-06T06:28:36.207Z,94396
2023-03-06T06:29:38.812Z,94399
2023-03-06T06:30:41.334Z,94406.6
2023-03-06T06:31:43.297Z,94396.4
2023-03-06T06:32:45.528Z,94400.9
2023-03-06T06:33:48.055Z,94403.1
2023-03-06T06:34:50.563Z,94404.9
2023-03-06T06:35:53.340Z,94400.6
2023-03-06T06:36:55.947Z,94404.4
2023-03-06T06:37:58.452Z,94401.8
2023-03-06T06:39:00.963Z,94403.2
2023-03-06T06:40:03.251Z,94402
2023-03-06T06:43:15.698Z,94401.4
2023-03-06T06:44:18.205Z,94404
2023-03-06T06:45:20.773Z,94405.2
2023-03-06T06:47:28.672Z,94403.4
2023-03-06T06:48:30.732Z,94405.4
2023-03-06T06:49:32.985Z,94405.2
2023-03-06T06:50:35.202Z,94403.6
2023-03-06T06:51:37.524Z,94407.3
2023-03-06T06:52:39.742Z,94404.8
2023-03-06T06:53:41.980Z,94402.5
2023-03-06T06:54:43.973Z,94404.1
2023-03-06T06:55:46.512Z,94402.5
2023-03-06T06:56:48.782Z,94405.2
2023-03-06T06:57:51.308Z,94402.3
2023-03-06T06:59:01.307Z,94406.5
2023-03-06T07:00:01.516Z,94406.8
2023-03-06T07:01:04.104Z,94409.8
2023-03-06T07:02:06.660Z,94409.1
2023-03-06T07:03:09.161Z,94405.8
2023-03-06T07:04:11.838Z,94404.1
2023-03-06T07:05:14.158Z,94405.8
2023-03-06T07:06:16.102Z,94400.3
2023-03-06T07:07:18.611Z,94402.4
2023-03-06T07:08:20.813Z,94398.7
2023-03-06T07:09:23.041Z,94399.8
2023-03-06T07:10:25.636Z,94403.3
2023-03-06T07:11:28.205Z,94403.2
2023-03-06T07:12:30.760Z,94405.8
2023-03-06T07:13:33.292Z,94402.4
2023-03-06T07:14:35.828Z,94405.8
2023-03-06T07:15:38.389Z,94406.3
2023-03-06T07:16:41.013Z,94404.1
2023-03-06T07:17:43.299Z,94402.2
2023-03-06T07:18:45.679Z,94403.6
2023-03-06T07:19:48.420Z,94404
2023-03-06T07:20:50.683Z,94402.4
2023-03-06T07:21:53.189Z,94400.3
2023-03-06T07:22:55.758Z,94395.7
2023-03-06T07:23:58.321Z,94400.2
2023-03-06T07:25:00.597Z,94395.7
2023-03-06T07:26:02.838Z,94394.7
2023-03-06T07:27:05.106Z,94396.9
2023-03-06T07:28:07.660Z,94395.5
2023-03-06T07:29:10.074Z,94394.4
2023-03-06T07:30:12.364Z,94393.2
2023-03-06T07:31:14.814Z,94394.4
2023-03-06T07:32:17.679Z,94397.1
2023-03-06T07:33:20.309Z,94397.1
2023-03-06T07:34:22.565Z,94399.1
2023-03-06T07:35:24.612Z,94402
2023-03-06T07:36:27.158Z,94403.4
2023-03-06T07:37:29.656Z,94405.6
2023-03-06T07:38:31.880Z,94405.3
2023-03-06T07:39:34.131Z,94406
2023-03-06T07:40:36.667Z,94405
2023-03-06T07:41:39.198Z,94404.2
2023-03-06T07:42:41.803Z,94407.9
2023-03-06T07:43:44.353Z,94405.8
2023-03-06T07:44:46.864Z,94406.1
2023-03-06T07:45:49.412Z,94404.2
2023-03-06T07:46:51.347Z,94406.9
2023-03-06T07:47:54.026Z,94403.8
2023-03-06T07:48:56.581Z,94406
2023-03-06T07:49:58.823Z,94406.5
2023-03-06T07:51:01.082Z,94410.3
2023-03-06T07:52:03.352Z,94408.9
2023-03-06T07:53:04.732Z,94412.7
2023-03-06T07:54:06.985Z,94415.3
2023-03-06T07:55:09.495Z,94413.2
2023-03-06T07:56:12.074Z,94408.4
2023-03-06T07:57:14.321Z,94410.6
2023-03-06T07:58:16.316Z,94413
2023-03-06T07:59:19.000Z,94411.8
2023-03-06T08:00:21.512Z,94417.1
2023-03-06T08:01:24.154Z,94415
2023-03-06T08:02:25.886Z,94414.4
2023-03-06T08:03:28.682Z,94414.1
2023-03-06T08:04:31.574Z,94415.3
2023-03-06T08:05:33.853Z,94412.5
2023-03-06T08:06:36.388Z,94415
2023-03-06T08:07:38.924Z,94422.1
2023-03-06T08:08:41.444Z,94419.8
2023-03-06T08:09:43.146Z,94414.1
2023-03-06T08:10:45.826Z,94414.3
2023-03-06T08:11:48.374Z,94414.4
2023-03-06T08:12:50.348Z,94415.9
2023-03-06T08:13:52.687Z,94417.3
2023-03-06T08:14:55.279Z,94416.7
2023-03-06T08:15:57.902Z,94420.9
2023-03-06T08:17:00.500Z,94419.9
2023-03-06T08:18:03.038Z,94419.6
2023-03-06T08:19:05.662Z,94419.9
2023-03-06T08:20:08.212Z,94419.4
2023-03-06T08:21:10.475Z,94416.3
2023-03-06T08:22:13.041Z,94418.1
2023-03-06T08:23:15.550Z,94417
2023-03-06T08:24:17.865Z,94421.2
2023-03-06T08:25:20.428Z,94420.9
2023-03-06T08:26:22.706Z,94422.9
2023-03-06T08:27:24.970Z,94425.9
2023-03-06T08:28:27.264Z,94422.4
2023-03-06T08:29:32.398Z,94426.6
2023-03-06T08:30:34.969Z,94430.6
2023-03-06T08:31:37.770Z,94428
2023-03-06T08:32:40.857Z,94437
2023-03-06T08:33:43.024Z,94436.5
2023-03-06T08:34:45.343Z,94433.6
2023-03-06T08:35:48.068Z,94432.2
2023-03-06T08:36:50.344Z,94429.9
2023-03-06T08:37:52.858Z,94432.1
2023-03-06T08:38:55.101Z,94431.5
2023-03-06T08:39:57.623Z,94435
2023-03-06T08:40:59.912Z,94436.1
2023-03-06T08:42:02.460Z,94432.4
2023-03-06T08:43:05.044Z,94432.1
2023-03-06T08:44:07.594Z,94435.6
2023-03-06T08:45:10.142Z,94431.7
2023-03-06T08:46:12.431Z,94436.4
2023-03-06T08:47:14.433Z,94432.8
2023-03-06T08:48:17.045Z,94438.8
2023-03-06T08:49:19.566Z,94443.9
2023-03-06T08:50:22.213Z,94439.1
2023-03-06T08:51:25.038Z,94444.1
2023-03-06T08:52:27.597Z,94444.3
2023-03-06T08:54:34.537Z,94440.4
2023-03-06T08:55:37.037Z,94450
2023-03-06T08:56:39.014Z,94443.8
2023-03-06T08:57:40.952Z,94447.4
2023-03-06T08:58:42.912Z,94444.6
2023-03-06T08:59:45.243Z,94446.9
2023-03-06T09:00:48.110Z,94444.3
2023-03-06T09:01:50.559Z,94449
2023-03-06T09:02:52.840Z,94442.2
2023-03-06T09:03:55.368Z,94440.7
2023-03-06T09:04:57.938Z,94441
2023-03-06T09:06:00.614Z,94440.4
2023-03-06T09:07:02.938Z,94442.2
2023-03-06T09:08:05.432Z,94439.4
2023-03-06T09:09:07.475Z,94441.9
2023-03-06T09:10:10.124Z,94442.6
2023-03-06T09:11:12.709Z,94442.3
2023-03-06T09:12:15.251Z,94444.8
2023-03-06T09:13:17.817Z,94443.2
2023-03-06T09:14:19.805Z,94446.1
2023-03-06T09:15:22.350Z,94443.2
2023-03-06T09:16:24.932Z,94441.7
2023-03-06T09:17:27.251Z,94439.8
2023-03-06T09:18:29.833Z,94440.3
2023-03-06T09:19:31.532Z,94438.8
2023-03-06T09:20:34.100Z,94441.4
2023-03-06T09:21:36.817Z,94441.2
2023-03-06T09:22:39.114Z,94442.7
2023-03-06T09:23:41.376Z,94440.7
2023-03-06T09:24:43.632Z,94441.1
2023-03-06T09:25:46.210Z,94442.9
2023-03-06T09:28:58.139Z,94447.6
2023-03-06T09:30:00.135Z,94445.4
2023-03-06T09:31:02.646Z,94444.6
2023-03-06T09:32:05.660Z,94448.3
2023-03-06T09:33:08.030Z,94445.5
2023-03-06T09:34:10.564Z,94448.9
2023-03-06T09:35:13.094Z,94445.1
2023-03-06T09:36:15.065Z,94448.8
2023-03-06T09:37:18.727Z,94445.9
2023-03-06T09:38:21.319Z,94443.4
2023-03-06T09:39:23.918Z,94447
2023-03-06T09:40:26.227Z,94447
2023-03-06T09:41:28.204Z,94447.3
2023-03-06T09:42:30.413Z,94443.6
2023-03-06T09:43:32.673Z,94448
2023-03-06T09:44:34.912Z,94443.8
2023-03-06T09:45:37.450Z,94443.6
2023-03-06T09:46:39.965Z,94443.5
2023-03-06T09:47:42.354Z,94449.3
2023-03-06T09:48:44.873Z,94448.6
2023-03-06T09:49:47.140Z,94448.3
2023-03-06T09:50:49.388Z,94445
2023-03-06T09:51:51.379Z,94446.1
2023-03-06T09:52:53.853Z,94449
2023-03-06T09:53:56.408Z,94446.9
2023-03-06T09:54:58.683Z,94448.2
2023-03-06T09:56:01.276Z,94450.4
2023-03-06T09:57:03.800Z,94443.4
2023-03-06T09:59:11.266Z,94450.4
2023-03-06T10:00:13.784Z,94447.8
2023-03-06T10:01:16.030Z,94448.8
2023-03-06T10:02:18.727Z,94452.3
2023-03-06T10:03:21.905Z,94448.4
2023-03-06T10:04:24.542Z,94439.9
2023-03-06T10:05:27.069Z,94441.9
2023-03-06T10:06:29.002Z,94440.1
2023-03-06T10:07:31.268Z,94442.3
2023-03-06T10:08:33.889Z,94443.8
2023-03-06T10:09:36.439Z,94444
2023-03-06T10:10:38.537Z,94449.8
2023-03-06T10:11:41.054Z,94448.9
2023-03-06T10:12:43.594Z,94443.3
2023-03-06T10:13:46.157Z,94443.6
2023-03-06T10:14:50.816Z,94448.8
2023-03-06T10:15:53.186Z,94440.4
2023-03-06T10:16:55.281Z,94443
2023-03-06T10:17:57.806Z,94439.1
2023-03-06T10:19:00.345Z,94440.4
2023-03-06T10:20:02.618Z,94443.9
2023-03-06T10:22:09.904Z,94444.5
2023-03-06T10:23:13.250Z,94442.6
2023-03-06T10:24:15.881Z,94443.2
2023-03-06T10:25:18.416Z,94442.9
2023-03-06T10:26:21.038Z,94442.5
2023-03-06T10:27:23.886Z,94444.6
2023-03-06T10:28:26.452Z,94443.2
2023-03-06T10:29:29.002Z,94441.2
2023-03-06T10:30:31.261Z,94437
2023-03-06T10:31:34.073Z,94436.9
2023-03-06T10:33:41.602Z,94433.7
2023-03-06T10:34:43.893Z,94434.9
2023-03-06T10:35:46.434Z,94434.4
2023-03-06T10:36:48.849Z,94431.2
2023-03-06T10:37:51.377Z,94431
2023-03-06T10:38:53.063Z,94433.4
2023-03-06T10:39:55.834Z,94438.3
2023-03-06T10:40:58.431Z,94433.2
2023-03-06T10:42:00.413Z,94431
2023-03-06T10:44:07.959Z,94430.3
2023-03-06T10:45:09.972Z,94430.3
2023-03-06T10:46:12.671Z,94428.2
2023-03-06T10:47:14.962Z,94428.1
2023-03-06T10:48:17.487Z,94427.4
2023-03-06T10:49:20.021Z,94429.9
2023-03-06T10:50:22.765Z,94424.5
2023-03-06T10:51:25.292Z,94427.6
2023-03-06T10:52:27.827Z,94427.6
2023-03-06T10:53:30.360Z,94423.6
2023-03-06T10:54:32.915Z,94428
2023-03-06T10:55:35.294Z,94425
2023-03-06T10:56:37.845Z,94425
2023-03-06T10:57:40.411Z,94426.5
2023-03-06T10:58:42.943Z,94429.1
2023-03-06T10:59:45.479Z,94426.2
2023-03-06T11:00:47.754Z,94420.3
2023-03-06T11:01:49.796Z,94424.2
2023-03-06T11:02:52.409Z,94423.7
2023-03-06T11:03:54.944Z,94425.2
2023-03-06T11:04:57.674Z,94421.8
2023-03-06T11:06:00.244Z,94423.4
2023-03-06T11:07:02.765Z,94426.4
2023-03-06T11:08:04.715Z,94425.9
2023-03-06T11:09:07.220Z,94420.7
2023-03-06T11:10:09.460Z,94423.2
2023-03-06T11:11:12.078Z,94419.2
2023-03-06T11:12:14.641Z,94419.3
2023-03-06T11:13:17.144Z,94415.3
2023-03-06T11:14:19.410Z,94412.3
2023-03-06T11:15:22.025Z,94412
2023-03-06T11:17:29.294Z,94404
2023-03-06T11:18:31.809Z,94401.6
2023-03-06T11:19:34.071Z,94398.9
2023-03-06T11:21:41.612Z,94404
2023-03-06T11:22:44.125Z,94400.9
2023-03-06T11:23:46.419Z,94400
2023-03-06T11:24:48.996Z,94396.4
2023-03-06T11:25:51.195Z,94398.8
2023-03-06T11:26:53.946Z,94402.7
2023-03-06T11:27:56.221Z,94406.4
2023-03-06T11:28:58.660Z,94407.9
2023-03-06T11:30:00.948Z,94407.3
2023-03-06T11:31:03.217Z,94410.3
2023-03-06T11:32:05.798Z,94410.4
2023-03-06T11:33:08.416Z,94408.7
2023-03-06T11:34:10.695Z,94409.5
2023-03-06T11:35:13.032Z,94414.8
2023-03-06T11:36:15.619Z,94412.1
2023-03-06T11:37:17.898Z,94417.3
2023-03-06T11:38:20.448Z,94416.4
2023-03-06T11:39:22.965Z,94415.3
2023-03-06T11:40:25.259Z,94419.2
2023-03-06T11:41:27.801Z,94422.9
2023-03-06T11:42:30.611Z,94425.4
2023-03-06T11:43:32.854Z,94421.3
2023-03-06T11:44:34.566Z,94422.7
2023-03-06T11:45:36.802Z,94422.7
2023-03-06T11:46:39.381Z,94423
2023-03-06T11:47:42.007Z,94418.2
2023-03-06T11:48:44.559Z,94422.1
2023-03-06T11:49:47.064Z,94419.3
2023-03-06T11:50:49.038Z,94416.1
2023-03-06T11:51:51.594Z,94410.3
2023-03-06T11:52:53.852Z,94409.9
2023-03-06T11:53:56.111Z,94406.3
2023-03-06T11:54:58.098Z,94408.8
2023-03-06T11:56:00.382Z,94413
2023-03-06T11:57:02.659Z,94409
2023-03-06T11:58:05.277Z,94408.5
2023-03-06T11:59:07.629Z,94416.9
2023-03-06T12:00:10.148Z,94411
2023-03-06T12:01:12.141Z,94412.6
2023-03-06T12:02:14.975Z,94410.5
2023-03-06T12:03:17.149Z,94408.3
2023-03-06T12:04:19.394Z,94416.4
2023-03-06T12:05:21.962Z,94408.5
2023-03-06T12:06:24.353Z,94410.1
2023-03-06T12:07:26.586Z,94409
2023-03-06T12:08:28.863Z,94406.9
2023-03-06T12:09:31.405Z,94402.9
2023-03-06T12:10:33.618Z,94405
2023-03-06T12:11:36.193Z,94402.9
2023-03-06T12:12:38.490Z,94403.6
2023-03-06T12:13:41.112Z,94398.8
2023-03-06T12:14:43.403Z,94405
2023-03-06T12:15:45.677Z,94399.1
2023-03-06T12:16:48.497Z,94397
2023-03-06T12:17:51.044Z,94395.5
2023-03-06T12:18:53.036Z,94391.7
2023-03-06T12:19:55.308Z,94395.8
2023-03-06T12:20:57.878Z,94391.1
2023-03-06T12:22:00.511Z,94391.1
2023-03-06T12:24:07.826Z,94393.9
2023-03-06T12:25:10.362Z,94391.7
2023-03-06T12:26:12.906Z,94399.1
2023-03-06T12:27:14.899Z,94393.5
2023-03-06T12:28:17.415Z,94393.5
2023-03-06T12:29:20.147Z,94397.8
2023-03-06T12:30:22.554Z,94388.2
2023-03-06T12:31:25.495Z,94388.8
2023-03-06T12:32:28.178Z,94389
2023-03-06T12:33:30.649Z,94386
2023-03-06T12:34:33.222Z,94385.2
2023-03-06T12:35:36.042Z,94385.2
2023-03-06T12:36:38.388Z,94381.5
2023-03-06T12:37:40.917Z,94384.1
2023-03-06T12:38:43.433Z,94384.6
2023-03-06T12:39:46.179Z,94384.4
2023-03-06T12:40:48.737Z,94378.3
2023-03-06T12:41:51.125Z,94379.2
2023-03-06T12:42:53.659Z,94381.8
2023-03-06T12:43:55.902Z,94378.1
2023-03-06T12:44:58.277Z,94380.7
2023-03-06T12:46:01.083Z,94383.5
2023-03-06T12:47:03.427Z,94380.4
2023-03-06T12:48:05.371Z,94379.2
2023-03-06T12:49:07.602Z,94380.5
2023-03-06T12:50:09.842Z,94383.6
2023-03-06T12:51:12.371Z,94379.9
2023-03-06T12:53:19.801Z,94385.4
2023-03-06T12:54:22.302Z,94385.5
2023-03-06T12:56:29.534Z,94386.1
2023-03-06T12:57:32.078Z,94380.9